createdAt,value
2022-11-08T00:00:24.967Z,19
2022-11-08T00:02:43.059Z,18.9
2022-11-08T00:05:00.911Z,19.1
2022-11-08T00:07:18.713Z,19.4
2022-11-08T00:09:36.524Z,19.1
2022-11-08T00:11:54.423Z,19.2
2022-11-08T00:14:12.347Z,18.9
2022-11-08T00:16:30.162Z,19.2
2022-11-08T00:18:47.985Z,19.2
2022-11-08T00:21:06.031Z,19.2
2022-11-08T00:23:24.240Z,19.3
2022-11-08T00:25:42.123Z,18
2022-11-08T00:27:59.864Z,19.1
2022-11-08T00:30:17.963Z,19.1
2022-11-08T00:32:35.655Z,19
2022-11-08T00:34:53.402Z,19.1
2022-11-08T00:37:11.202Z,19.1
2022-11-08T00:39:29.360Z,19.3
2022-11-08T00:41:47.206Z,17.9
2022-11-08T00:44:05.104Z,19.2
2022-11-08T00:46:22.983Z,18.9
2022-11-08T00:48:41.273Z,19.1
2022-11-08T00:50:59.485Z,18
2022-11-08T00:53:17.427Z,18.3
2022-11-08T00:55:35.166Z,18.9
2022-11-08T00:58:04.861Z,19.1
2022-11-08T01:00:22.790Z,17.9
2022-11-08T01:02:40.639Z,19
2022-11-08T01:04:58.613Z,19.1
2022-11-08T01:07:16.412Z,19.1
2022-11-08T01:09:34.299Z,19.1
2022-11-08T01:11:52.008Z,18.9
2022-11-08T01:14:09.798Z,19
2022-11-08T01:16:27.597Z,19.1
2022-11-08T01:18:45.477Z,18.9
2022-11-08T01:21:03.302Z,19.1
2022-11-08T01:23:21.151Z,19.1
2022-11-08T01:25:38.996Z,18.9
2022-11-08T01:27:56.996Z,19.1
2022-11-08T01:30:14.753Z,19.2
2022-11-08T01:32:32.568Z,18.9
2022-11-08T01:34:50.546Z,19
2022-11-08T01:37:08.442Z,18.9
2022-11-08T01:39:26.288Z,19.1
2022-11-08T01:41:44.345Z,19
2022-11-08T01:44:01.943Z,19
2022-11-08T01:46:20.163Z,19
2022-11-08T01:48:37.869Z,17.9
2022-11-08T01:50:55.749Z,19.2
2022-11-08T01:53:13.591Z,19.1
2022-11-08T01:55:31.349Z,19.1
2022-11-08T01:57:49.243Z,19.1
2022-11-08T02:00:07.397Z,19.1
2022-11-08T02:02:25.303Z,17.9
2022-11-08T02:04:42.995Z,18.9
2022-11-08T02:07:01.236Z,19
2022-11-08T02:09:19.058Z,18
2022-11-08T02:11:36.991Z,19
2022-11-08T02:13:54.820Z,18.9
2022-11-08T02:16:12.654Z,18.9
2022-11-08T02:18:30.892Z,19.1
2022-11-08T02:20:48.692Z,18.1
2022-11-08T02:23:06.531Z,19.2
2022-11-08T02:25:24.718Z,19.2
2022-11-08T02:27:42.808Z,17.9
2022-11-08T02:30:00.359Z,18.8
2022-11-08T02:32:18.218Z,19.1
2022-11-08T02:34:36.169Z,19.1
2022-11-08T02:36:53.828Z,19
2022-11-08T02:39:11.674Z,19
2022-11-08T02:41:29.453Z,19
2022-11-08T02:43:47.276Z,18.8
2022-11-08T02:46:05.182Z,18.9
2022-11-08T02:48:23.390Z,19
2022-11-08T02:50:41.223Z,18
2022-11-08T02:52:59.362Z,18.9
2022-11-08T02:55:17.279Z,17.9
2022-11-08T02:57:35.480Z,19.1
2022-11-08T02:59:53.353Z,17.9
2022-11-08T03:02:11.840Z,19.1
2022-11-08T03:04:29.397Z,18.1
2022-11-08T03:06:47.433Z,19.1
2022-11-08T03:09:05.097Z,19.1
2022-11-08T03:11:22.928Z,18.9
2022-11-08T03:13:41.010Z,19.1
2022-11-08T03:18:16.972Z,18.8
2022-11-08T03:20:34.662Z,19
2022-11-08T03:22:52.449Z,17.7
2022-11-08T03:25:10.276Z,19.1
2022-11-08T03:27:28.173Z,19
2022-11-08T03:29:46.206Z,19.1
2022-11-08T03:32:03.836Z,19.2
2022-11-08T03:34:21.858Z,19.1
2022-11-08T03:36:39.590Z,19.3
2022-11-08T03:38:57.352Z,18.9
2022-11-08T03:41:15.198Z,18.9
2022-11-08T03:43:33.354Z,19.1
2022-11-08T03:45:51.259Z,17.9
2022-11-08T03:48:08.977Z,18.9
2022-11-08T03:50:26.833Z,18.9
2022-11-08T03:52:44.719Z,19.1
2022-11-08T03:55:02.529Z,19.1
2022-11-08T03:57:20.360Z,19.2
2022-11-08T03:59:38.527Z,19
2022-11-08T04:01:56.141Z,19.1
2022-11-08T04:04:13.829Z,19.1
2022-11-08T04:06:31.605Z,18.8
2022-11-08T04:08:49.483Z,19
2022-11-08T04:11:07.279Z,19.1
2022-11-08T04:13:25.318Z,19
2022-11-08T04:15:43.045Z,19.1
2022-11-08T04:18:00.920Z,19.1
2022-11-08T04:20:18.705Z,18.9
2022-11-08T04:22:36.466Z,19
2022-11-08T04:24:54.339Z,19.1
2022-11-08T04:27:12.197Z,18.8
2022-11-08T04:29:30.023Z,19
2022-11-08T04:31:48.156Z,18.9
2022-11-08T04:34:06.103Z,18.1
2022-11-08T04:36:23.991Z,19.1
2022-11-08T04:38:41.889Z,18.9
2022-11-08T04:40:59.637Z,18.9
2022-11-08T04:43:17.346Z,19.1
2022-11-08T04:45:35.500Z,19.2
2022-11-08T04:47:53.163Z,18.9
2022-11-08T04:50:10.880Z,19
2022-11-08T04:52:28.789Z,19
2022-11-08T04:54:46.645Z,19.1
2022-11-08T04:57:04.477Z,18.8
2022-11-08T04:59:22.120Z,19.1
2022-11-08T05:01:40.233Z,18.9
2022-11-08T05:03:57.829Z,19
2022-11-08T05:06:15.714Z,19
2022-11-08T05:08:33.577Z,18.8
2022-11-08T05:10:51.376Z,18.9
2022-11-08T05:13:09.155Z,19
2022-11-08T05:15:27.012Z,18.9
2022-11-08T05:17:44.829Z,18.8
2022-11-08T05:20:02.660Z,18.9
2022-11-08T05:22:20.525Z,19.1
2022-11-08T05:24:38.301Z,19
2022-11-08T05:26:56.148Z,18.9
2022-11-08T05:29:13.944Z,18.8
2022-11-08T05:31:32.420Z,19
2022-11-08T05:33:50.408Z,17.8
2022-11-08T05:36:08.610Z,18.1
2022-11-08T05:38:26.572Z,18.1
2022-11-08T05:40:44.498Z,19.1
2022-11-08T05:43:02.371Z,18.9
2022-11-08T05:45:20.215Z,18.9
2022-11-08T05:47:37.995Z,18.9
2022-11-08T05:49:55.915Z,18.9
2022-11-08T05:52:13.638Z,18.8
2022-11-08T05:54:31.463Z,19.1
2022-11-08T05:56:49.635Z,19.1
2022-11-08T05:59:07.545Z,18
2022-11-08T06:01:25.479Z,19
2022-11-08T06:03:43.259Z,19
2022-11-08T06:06:01.490Z,18.9
2022-11-08T06:08:19.369Z,17.8
2022-11-08T06:10:37.197Z,18.9
2022-11-08T06:12:55.092Z,19.1
2022-11-08T06:15:12.871Z,19
2022-11-08T06:17:30.920Z,19
2022-11-08T06:19:48.439Z,19
2022-11-08T06:22:06.263Z,19
2022-11-08T06:24:24.184Z,19
2022-11-08T06:26:41.998Z,18.9
2022-11-08T06:28:59.781Z,19.3
2022-11-08T06:31:18.220Z,18.9
2022-11-08T06:33:35.879Z,18.1
2022-11-08T06:35:53.730Z,18.9
2022-11-08T06:38:11.580Z,19.1
2022-11-08T06:40:29.426Z,19
2022-11-08T06:42:47.257Z,18.9
2022-11-08T06:45:05.068Z,19.1
2022-11-08T06:47:23.319Z,19.1
2022-11-08T06:49:41.495Z,18.1
2022-11-08T06:51:59.838Z,18.3
2022-11-08T06:54:17.961Z,18.2
2022-11-08T06:56:35.579Z,19.2
2022-11-08T06:58:53.426Z,18.9
2022-11-08T07:01:11.318Z,18.9
2022-11-08T07:03:29.682Z,19
2022-11-08T07:05:47.385Z,18.3
2022-11-08T07:08:05.161Z,18.9
2022-11-08T07:10:23.198Z,19
2022-11-08T07:12:40.877Z,19.1
2022-11-08T07:14:58.947Z,19.1
2022-11-08T07:17:16.741Z,19.1
2022-11-08T07:19:34.980Z,19.1
2022-11-08T07:21:52.851Z,18.1
2022-11-08T07:24:10.721Z,19.2
2022-11-08T07:26:28.958Z,19.1
2022-11-08T07:28:46.799Z,18.2
2022-11-08T07:31:04.829Z,19.1
2022-11-08T07:33:23.215Z,19.2
2022-11-08T07:35:41.167Z,18.2
2022-11-08T07:37:59.134Z,19.1
2022-11-08T07:40:17.107Z,18.2
2022-11-08T07:42:57.122Z,19.2
2022-11-08T07:45:14.724Z,18.4
2022-11-08T07:47:32.506Z,19.1
2022-11-08T07:49:50.368Z,18.9
2022-11-08T07:52:08.444Z,19.3
2022-11-08T07:54:26.580Z,19.3
2022-11-08T07:56:44.087Z,19.2
2022-11-08T07:59:01.993Z,19.1
2022-11-08T08:01:19.908Z,19.1
2022-11-08T08:03:38.131Z,19.1
2022-11-08T08:06:00.691Z,17.9
2022-11-08T08:08:14.011Z,19.1
2022-11-08T08:10:31.963Z,19.1
2022-11-08T08:12:49.851Z,19.2
2022-11-08T08:15:07.972Z,19.2
2022-11-08T08:17:25.561Z,18.9
2022-11-08T08:19:43.463Z,19.2
2022-11-08T08:22:01.312Z,19.3
2022-11-08T08:24:19.405Z,19.2
2022-11-08T08:26:37.283Z,19.2
2022-11-08T08:28:54.926Z,19.3
2022-11-08T08:31:12.994Z,19.3
2022-11-08T08:33:44.413Z,19.1
2022-11-08T08:36:02.469Z,19.2
2022-11-08T08:38:20.462Z,19.3
2022-11-08T08:40:38.584Z,19.3
2022-11-08T08:42:56.288Z,18.9
2022-11-08T08:45:15.188Z,19.1
2022-11-08T08:47:32.310Z,19.1
2022-11-08T08:49:50.235Z,19.3
2022-11-08T08:52:08.175Z,19.3
2022-11-08T08:54:29.388Z,19.3
2022-11-08T08:56:44.094Z,19.4
2022-11-08T09:03:55.489Z,18.6
2022-11-08T09:06:13.465Z,19.4
2022-11-08T09:08:31.567Z,19.2
2022-11-08T09:10:49.395Z,19.4
2022-11-08T09:13:07.590Z,19.3
2022-11-08T09:15:25.496Z,19.5
2022-11-08T09:17:43.986Z,19.4
2022-11-08T09:20:01.832Z,18.5
2022-11-08T09:22:20.119Z,19.4
2022-11-08T09:24:38.029Z,19.3
2022-11-08T09:26:55.908Z,19.3
2022-11-08T09:29:14.051Z,19.4
2022-11-08T09:31:32.009Z,19.3
2022-11-08T09:36:20.852Z,19.4
2022-11-08T09:38:38.875Z,19.5
2022-11-08T09:40:56.880Z,19.5
2022-11-08T09:43:15.035Z,19.3
2022-11-08T09:45:32.914Z,19.3
2022-11-08T09:47:52.859Z,19.6
2022-11-08T09:50:08.922Z,19.4
2022-11-08T09:52:26.947Z,19.3
2022-11-08T09:54:44.891Z,19.3
2022-11-08T09:57:02.896Z,19.6
2022-11-08T09:59:21.012Z,19.6
2022-11-08T10:01:39.011Z,19.4
2022-11-08T10:03:56.914Z,19.4
2022-11-08T10:06:14.896Z,19.4
2022-11-08T10:08:32.905Z,19.8
2022-11-08T10:10:50.878Z,19.6
2022-11-08T10:13:09.069Z,19.7
2022-11-08T10:15:26.840Z,19.4
2022-11-08T10:17:44.917Z,19.8
2022-11-08T10:20:06.822Z,19.6
2022-11-08T10:22:20.937Z,19.4
2022-11-08T10:24:38.909Z,19.5
2022-11-08T10:26:56.887Z,19.7
2022-11-08T10:29:14.846Z,19.8
2022-11-08T10:31:32.934Z,19.8
2022-11-08T10:33:50.967Z,19.8
2022-11-08T10:36:09.144Z,19.8
2022-11-08T10:38:27.192Z,18.6
2022-11-08T10:40:45.438Z,19.8
2022-11-08T10:43:08.231Z,18.6
2022-11-08T10:45:22.452Z,19.6
2022-11-08T10:47:40.455Z,19.8
2022-11-08T10:50:03.593Z,19.8
2022-11-08T10:52:16.508Z,19.8
2022-11-08T10:54:34.458Z,19.9
2022-11-08T10:56:52.462Z,19.6
2022-11-08T10:59:10.953Z,19.9
2022-11-08T11:01:28.717Z,18.8
2022-11-08T11:03:46.605Z,20
2022-11-08T11:06:04.748Z,19.9
2022-11-08T11:08:22.699Z,19.9
2022-11-08T11:10:40.811Z,19.9
2022-11-08T11:12:58.750Z,19.8
2022-11-08T11:15:16.758Z,19.9
2022-11-08T11:17:37.056Z,19.9
2022-11-08T11:19:52.757Z,20.1
2022-11-08T11:22:10.775Z,19.8
2022-11-08T11:24:28.786Z,19.9
2022-11-08T11:26:46.789Z,19.8
2022-11-08T11:29:04.721Z,19.9
2022-11-08T11:31:22.687Z,19.9
2022-11-08T11:33:40.785Z,19.9
2022-11-08T11:35:58.724Z,19.8
2022-11-08T11:38:17.089Z,20
2022-11-08T11:40:34.688Z,19.8
2022-11-08T11:43:12.757Z,20
2022-11-08T11:45:30.726Z,20.1
2022-11-08T11:47:48.775Z,20.1
2022-11-08T11:50:06.772Z,20.1
2022-11-08T11:52:25.004Z,19.8
2022-11-08T11:54:43.174Z,19.8
2022-11-08T11:57:01.415Z,19
2022-11-08T11:59:19.462Z,20.1
2022-11-08T12:01:37.722Z,20.3
2022-11-08T12:03:55.692Z,20
2022-11-08T12:06:14.004Z,20.1
2022-11-08T12:08:32.014Z,19.9
2022-11-08T12:10:50.446Z,20.1
2022-11-08T12:13:08.133Z,19.9
2022-11-08T12:15:26.134Z,20.2
2022-11-08T12:17:44.357Z,20.1
2022-11-08T12:20:04.231Z,20.1
2022-11-08T12:22:22.212Z,20.1
2022-11-08T12:24:40.268Z,20.1
2022-11-08T12:26:58.312Z,20
2022-11-08T12:29:16.247Z,20.1
2022-11-08T12:31:34.231Z,20
2022-11-08T12:33:56.789Z,20.1
2022-11-08T12:36:10.208Z,20.2
2022-11-08T12:38:28.159Z,20.1
2022-11-08T12:40:46.153Z,20.1
2022-11-08T12:43:04.111Z,20.1
2022-11-08T12:45:22.130Z,20.1
2022-11-08T12:47:40.073Z,19.9
2022-11-08T12:49:58.050Z,20.1
2022-11-08T12:52:16.185Z,20.3
2022-11-08T12:54:33.977Z,20.1
2022-11-08T12:56:52.331Z,20.1
2022-11-08T12:59:10.088Z,20.1
2022-11-08T13:01:28.125Z,20.3
2022-11-08T13:03:46.263Z,20.1
2022-11-08T13:06:04.474Z,20.2
2022-11-08T13:08:22.682Z,19
2022-11-08T13:10:40.743Z,20.3
2022-11-08T13:12:58.962Z,20.4
2022-11-08T13:15:16.963Z,20.4
2022-11-08T13:17:35.291Z,20.1
2022-11-08T13:19:53.360Z,20.2
2022-11-08T13:22:11.648Z,19.1
2022-11-08T13:24:43.720Z,19.3
2022-11-08T13:26:48.937Z,20.2
2022-11-08T13:29:06.960Z,20.6
2022-11-08T13:31:24.894Z,20.3
2022-11-08T13:33:43.066Z,20.4
2022-11-08T13:36:01.420Z,19.2
2022-11-08T13:38:19.813Z,19.4
2022-11-08T13:40:37.436Z,20.4
2022-11-08T13:42:55.606Z,20.3
2022-11-08T13:45:13.664Z,20.1
2022-11-08T13:47:31.743Z,19
2022-11-08T13:49:49.861Z,20.4
2022-11-08T13:52:07.853Z,20.4
2022-11-08T13:54:26.226Z,20.4
2022-11-08T13:56:44.253Z,19.1
2022-11-08T13:59:02.413Z,20.4
2022-11-08T14:01:20.413Z,20.6
2022-11-08T14:03:38.645Z,20.4
2022-11-08T14:05:56.566Z,20.2
2022-11-08T14:08:14.502Z,20.1
2022-11-08T14:10:32.738Z,20.2
2022-11-08T14:12:50.998Z,20.2
2022-11-08T14:15:09.168Z,19.3
2022-11-08T14:17:27.075Z,20.3
2022-11-08T14:19:45.443Z,20.4
2022-11-08T14:22:03.337Z,20.6
2022-11-08T14:24:21.515Z,20.4
2022-11-08T14:26:39.425Z,20.4
2022-11-08T14:28:57.937Z,20.3
2022-11-08T14:31:15.631Z,20.1
2022-11-08T14:33:33.617Z,20.1
2022-11-08T14:35:51.987Z,20.1
2022-11-08T14:38:09.932Z,20.3
2022-11-08T14:40:28.189Z,20.1
2022-11-08T14:42:46.168Z,20.3
2022-11-08T14:45:04.585Z,20
2022-11-08T14:47:22.507Z,18.9
2022-11-08T14:49:40.825Z,20.3
2022-11-08T14:51:59.604Z,20.4
2022-11-08T14:54:16.834Z,20.1
2022-11-08T14:56:35.010Z,20.3
2022-11-08T14:58:53.087Z,20.1
2022-11-08T15:01:11.372Z,20
2022-11-08T15:03:29.295Z,20.1
2022-11-08T15:05:48.991Z,20.1
2022-11-08T15:08:07.007Z,19.8
2022-11-08T15:10:25.099Z,19.9
2022-11-08T15:12:43.294Z,20
2022-11-08T15:15:01.512Z,18.9
2022-11-08T15:17:19.556Z,20.1
2022-11-08T15:19:37.612Z,19.2
2022-11-08T15:21:55.574Z,20.3
2022-11-08T15:24:13.626Z,20.2
2022-11-08T15:26:31.538Z,20.1
2022-11-08T15:28:49.521Z,20.2
2022-11-08T15:31:07.490Z,20.1
2022-11-08T15:33:25.513Z,19.9
2022-11-08T15:35:43.732Z,20
2022-11-08T15:38:02.033Z,19.1
2022-11-08T15:42:43.260Z,20.2
2022-11-08T15:44:56.467Z,20.1
2022-11-08T15:47:14.991Z,19.9
2022-11-08T15:49:32.947Z,18.9
2022-11-08T15:51:51.209Z,20.1
2022-11-08T15:54:09.289Z,19.9
2022-11-08T15:56:27.446Z,19.7
2022-11-08T15:58:45.527Z,19.8
2022-11-08T16:01:03.994Z,19.9
2022-11-08T16:03:21.739Z,19.8
2022-11-08T16:05:39.736Z,19.6
2022-11-08T16:07:57.991Z,20
2022-11-08T16:10:16.063Z,20
2022-11-08T16:12:34.181Z,19.7
2022-11-08T16:14:52.396Z,19.8
2022-11-08T16:17:10.426Z,20
2022-11-08T16:19:28.446Z,19.6
2022-11-08T16:21:46.586Z,19.8
2022-11-08T16:24:04.506Z,19.6
2022-11-08T16:26:22.605Z,19.8
2022-11-08T16:28:40.844Z,19.7
2022-11-08T16:30:58.768Z,19.7
2022-11-08T16:33:16.968Z,19.8
2022-11-08T16:35:34.949Z,19.6
2022-11-08T16:37:53.208Z,19.6
2022-11-08T16:40:11.210Z,19.7
2022-11-08T16:42:29.395Z,19.5
2022-11-08T16:44:47.496Z,19.7
2022-11-08T16:47:22.917Z,19.8
2022-11-08T16:49:40.878Z,19.8
2022-11-08T16:51:58.856Z,19.8
2022-11-08T16:54:16.893Z,19.6
2022-11-08T16:56:34.848Z,19.8
2022-11-08T16:59:08.867Z,19.6
2022-11-08T17:01:27.204Z,19.9
2022-11-08T17:03:45.341Z,18.4
2022-11-08T17:06:03.400Z,19.8
2022-11-08T17:08:21.884Z,19.8
2022-11-08T17:10:39.745Z,19.6
2022-11-08T17:12:58.327Z,19.5
2022-11-08T17:15:16.202Z,19.5
2022-11-08T17:17:34.147Z,19.6
2022-11-08T17:19:52.600Z,19.8
2022-11-08T17:22:26.612Z,19.7
2022-11-08T17:24:44.615Z,19.4
2022-11-08T17:27:02.618Z,19.4
2022-11-08T17:29:20.606Z,19.7
2022-11-08T17:31:38.590Z,19.5
2022-11-08T17:33:56.584Z,19.6
2022-11-08T17:36:14.497Z,19.5
2022-11-08T17:38:32.834Z,19.8
2022-11-08T17:40:50.520Z,19.2
2022-11-08T17:43:08.758Z,19.4
2022-11-08T17:45:27.109Z,18.3
2022-11-08T17:47:45.117Z,19.6
2022-11-08T17:50:03.337Z,19.6
2022-11-08T17:52:21.376Z,19.3
2022-11-08T17:54:39.623Z,19.6
2022-11-08T17:56:57.597Z,19.4
2022-11-08T17:59:15.817Z,19.6
2022-11-08T18:01:33.944Z,19.5
2022-11-08T18:03:51.813Z,19.6
2022-11-08T18:06:10.215Z,19.3
2022-11-08T18:08:28.312Z,18.4
2022-11-08T18:10:46.535Z,19.4
2022-11-08T18:13:04.550Z,19.2
2022-11-08T18:15:22.758Z,19.6
2022-11-08T18:17:40.831Z,19.5
2022-11-08T18:19:59.199Z,19.7
2022-11-08T18:22:17.199Z,19.3
2022-11-08T18:24:35.777Z,19.4
2022-11-08T18:26:53.651Z,19.7
2022-11-08T18:29:11.752Z,19.4
2022-11-08T18:31:30.040Z,19.5
2022-11-08T18:33:48.201Z,19.4
2022-11-08T18:36:06.477Z,19.6
2022-11-08T18:38:24.526Z,19.3
2022-11-08T18:40:43.048Z,19.3
2022-11-08T18:43:01.083Z,18.4
2022-11-08T18:45:19.279Z,19.4
2022-11-08T18:47:37.274Z,19.4
2022-11-08T18:49:55.322Z,19.3
2022-11-08T18:52:13.550Z,19.2
2022-11-08T18:54:31.547Z,19.3
2022-11-08T18:56:49.769Z,19.2
2022-11-08T18:59:07.828Z,19.3
2022-11-08T19:01:26.087Z,19.3
2022-11-08T19:03:44.057Z,19.3
2022-11-08T19:06:02.240Z,19.3
2022-11-08T19:08:20.229Z,19.5
2022-11-08T19:10:38.838Z,19.3
2022-11-08T19:12:56.493Z,19
2022-11-08T19:15:14.503Z,19.3
2022-11-08T19:17:32.903Z,19.4
2022-11-08T19:19:50.928Z,19.4
2022-11-08T19:22:09.227Z,19.3
2022-11-08T19:24:27.333Z,19.4
2022-11-08T19:26:45.584Z,19.3
2022-11-08T19:29:03.661Z,19.2
2022-11-08T19:31:22.165Z,19.2
2022-11-08T19:33:40.219Z,18.2
2022-11-08T19:35:58.325Z,19.4
2022-11-08T19:38:16.984Z,19.4
2022-11-08T19:40:34.663Z,19.4
2022-11-08T19:42:52.900Z,19.2
2022-11-08T19:45:10.968Z,19.1
2022-11-08T19:47:29.238Z,19.4
2022-11-08T19:49:47.290Z,19.1
2022-11-08T19:52:05.595Z,19.2
2022-11-08T19:54:23.921Z,19.4
2022-11-08T19:57:04.493Z,18.4
2022-11-08T19:59:18.323Z,18.2
2022-11-08T20:01:36.708Z,19.3
2022-11-08T20:03:54.710Z,18.3
2022-11-08T20:06:12.995Z,19.3
2022-11-08T20:08:31.154Z,18.3
2022-11-08T20:10:49.113Z,19.2
2022-11-08T20:13:07.005Z,19.1
2022-11-08T20:15:25.298Z,19.1
2022-11-08T20:17:43.458Z,18.3
2022-11-08T20:20:01.757Z,19.1
2022-11-08T20:22:20.067Z,18.3
2022-11-08T20:24:38.307Z,18.5
2022-11-08T20:26:56.135Z,19.3
2022-11-08T20:29:14.265Z,19
2022-11-08T20:31:32.571Z,19.1
2022-11-08T20:33:50.691Z,18.3
2022-11-08T20:36:08.582Z,19.2
2022-11-08T20:38:26.723Z,18.9
2022-11-08T20:40:44.565Z,18.9
2022-11-08T20:43:02.990Z,19.2
2022-11-08T20:45:20.676Z,18.8
2022-11-08T20:47:38.585Z,19.1
2022-11-08T20:49:56.844Z,19.3
2022-11-08T20:52:14.826Z,18.9
2022-11-08T20:54:32.978Z,19.1
2022-11-08T20:56:50.804Z,19.1
2022-11-08T20:59:08.775Z,19
2022-11-08T21:01:45.039Z,19.1
2022-11-08T21:04:02.794Z,18.9
2022-11-08T21:06:20.747Z,19.1
2022-11-08T21:10:43.879Z,19
2022-11-08T21:13:01.836Z,18.9
2022-11-08T21:15:22.963Z,19
2022-11-08T21:18:07.989Z,19
2022-11-08T21:20:25.787Z,19
2022-11-08T21:22:43.612Z,19.1
2022-11-08T21:25:01.434Z,18.9
2022-11-08T21:27:19.351Z,18.9
2022-11-08T21:29:37.150Z,18.8
2022-11-08T21:31:54.995Z,19.2
2022-11-08T21:34:13.059Z,19.1
2022-11-08T21:36:30.642Z,18.9
2022-11-08T21:38:48.464Z,18.9
2022-11-08T21:41:06.270Z,19.1
2022-11-08T21:43:24.075Z,18.8
2022-11-08T21:45:41.913Z,18.8
2022-11-08T21:47:59.724Z,18.9
2022-11-08T21:50:17.652Z,18.9
2022-11-08T21:52:35.480Z,18.8
2022-11-08T21:54:53.315Z,19
2022-11-08T21:57:11.092Z,18.8
2022-11-08T21:59:28.950Z,18.9
2022-11-08T22:01:46.741Z,18.8
2022-11-08T22:04:04.665Z,18.9
2022-11-08T22:06:22.409Z,18.9
2022-11-08T22:08:40.645Z,18.8
2022-11-08T22:10:58.529Z,17.9
2022-11-08T22:13:16.364Z,18.9
2022-11-08T22:15:34.141Z,18.8
2022-11-08T22:18:15.553Z,18.8
2022-11-08T22:22:57.031Z,18.8
2022-11-08T22:25:15.168Z,17.9
2022-11-08T22:27:32.800Z,18.6
2022-11-08T22:29:50.630Z,18.8
2022-11-08T22:32:08.597Z,18.8
2022-11-08T22:34:26.436Z,18.9
2022-11-08T22:36:45.490Z,18.8
2022-11-08T22:39:02.170Z,18.9
2022-11-08T22:41:19.877Z,18.8
2022-11-08T22:43:37.888Z,18.8
2022-11-08T22:45:55.638Z,18.6
2022-11-08T22:48:13.926Z,18.8
2022-11-08T22:50:31.780Z,17.9
2022-11-08T22:52:49.595Z,18.9
2022-11-08T22:57:25.325Z,18.8
2022-11-08T22:59:43.208Z,18.8
2022-11-08T23:02:01.025Z,18.5
2022-11-08T23:04:18.921Z,18.6
2022-11-08T23:06:36.817Z,18.6
2022-11-08T23:08:54.708Z,18.6
2022-11-08T23:11:12.519Z,18.8
2022-11-08T23:13:30.203Z,18.5
2022-11-08T23:15:48.060Z,18.5
2022-11-08T23:24:59.380Z,18.8
2022-11-08T23:27:17.212Z,18.6
2022-11-08T23:29:34.958Z,18.6
2022-11-08T23:31:52.964Z,18.6
2022-11-08T23:34:10.747Z,18.5
2022-11-08T23:36:28.660Z,18.6
2022-11-08T23:41:04.708Z,17.6
2022-11-08T23:43:22.722Z,18.6
2022-11-08T23:45:40.586Z,18.6
2022-11-08T23:47:58.362Z,18.8
2022-11-08T23:50:16.301Z,18.4
2022-11-08T23:52:34.000Z,18.5
2022-11-08T23:54:51.907Z,18.6
2022-11-08T23:57:09.968Z,18.5
2022-11-08T23:59:27.625Z,18.6
